Airfield :
LOGIN :

Register | Disclaimer

   EN    FR    IT 

 










Legend :    VFR   Marginal VFR   IFR   Intensive IFR   Very Intensive IFR
Visi :
Ceiling :
>= 8 km
>= 3000ft
5 to 8 km
1000 to 3000 ft
1500m to 5 km
500 to 1000 ft
800 to 1500m
200 to 500 ft
< 800m
< 200 ft
Symbols :   Thunderstorms  Fog  Heavy snow  Heavy precipitations  Wind > 20 kt
SIGMETs :     Misc.  Thunderstorms  Icing  Turbulence  Mountain Waves  Volcanic Ashes







- Airport Elevation : 308 ft
- IATA code : MHG


EDFM - Mannheim-City

CURRENT METAR :
  • 191020Z 16004KT 140V220 9999 SCT026 BKN044 07/02 Q1021

EXPIRED METARs :
  • 190950Z VRB02KT 9999 FEW026 BKN045 07/02 Q1021
  • 190920Z VRB03KT 9999 OVC045 06/02 Q1021
  • 190850Z VRB02KT 9999 OVC047 06/02 Q1021
  • 190820Z 11003KT 9999 OVC049 05/02 Q1020
  • 190750Z VRB03KT CAVOK 05/01 Q1020

TAF TAF EDFM
Valid from the 19 at 09:00 until the 19 at 18:00 UTC


190800Z 1909/1918 22006KT 9999 SCT020 BKN040
No reported NOTAMs for that airfield.



MET'MAP, your aeronautical weather chart ! - Copyright ORBIFLY December 2007 - Disclaimer

ORBIFLY MET'MAP TEAM :

Programming & Development : Alexandra Zaïnal
Concept & Development : Baudouin d'Aumeries
Co-Development & Prog : Marc-Olivier Méhu
Technical & hardware support : Manuel Goepfert

Contact : metmap@orbifly.com




SOURCES & CREDITS :

   NOAA